Forest Home, Alabama
Current Conditions -  °F | °C
As of 8:56 AM on Sunday 21 Dec 2014 (Local Time) from KPRN Reporting Station
Haze Haze  
Wind Chill: 53°   Ceiling: 200
Heat Index: 53°   Visibility: 5mi
Dew Point: 50°   Wind: 6mph
Humidity: 89%   Direction: 70°ENE
Pressure: 30.13"   Gusts: NA
Location:  31.86°N, 86.84°W
Report Text: KPRN 211456Z AUTO 07005KT 5SM BR OVC002 12/10 A3013 RMK AO2 SLP201 T01170100 50001
Loading
Personal Weather Stations






























Interactive Weather Map New forecast layout! Learn more

10-Day Weather Forecast

Advertisements
Track Severe Weather on mobile